sensor_id;sensor_type;location;lat;lon;timestamp;pressure;altitude;pressure_sealevel;temperature
12430;BMP280;6279;42.192;24.326;2023-02-28T00:01:01;99581.78;;;10.71
12430;BMP280;6279;42.192;24.326;2023-02-28T00:03:27;99594.63;;;10.73
12430;BMP280;6279;42.192;24.326;2023-02-28T00:05:53;99588.34;;;10.75
12430;BMP280;6279;42.192;24.326;2023-02-28T00:08:18;99584.44;;;10.79
12430;BMP280;6279;42.192;24.326;2023-02-28T00:10:44;99580.06;;;10.79
12430;BMP280;6279;42.192;24.326;2023-02-28T00:13:09;99586.91;;;10.80
12430;BMP280;6279;42.192;24.326;2023-02-28T00:15:35;99590.47;;;10.79
12430;BMP280;6279;42.192;24.326;2023-02-28T00:18:03;99585.78;;;10.83
12430;BMP280;6279;42.192;24.326;2023-02-28T00:20:28;99581.03;;;10.78
12430;BMP280;6279;42.192;24.326;2023-02-28T00:22:55;99593.16;;;10.70
12430;BMP280;6279;42.192;24.326;2023-02-28T00:25:23;99595.19;;;10.76
12430;BMP280;6279;42.192;24.326;2023-02-28T00:27:51;99598.75;;;10.75
12430;BMP280;6279;42.192;24.326;2023-02-28T00:30:22;99603.13;;;10.74
12430;BMP280;6279;42.192;24.326;2023-02-28T00:32:49;99612.00;;;10.64
12430;BMP280;6279;42.192;24.326;2023-02-28T00:35:15;99604.19;;;10.64
12430;BMP280;6279;42.192;24.326;2023-02-28T00:37:41;99595.22;;;10.59
12430;BMP280;6279;42.192;24.326;2023-02-28T00:40:10;99595.38;;;10.57
12430;BMP280;6279;42.192;24.326;2023-02-28T00:42:37;99598.53;;;10.44
12430;BMP280;6279;42.192;24.326;2023-02-28T00:45:03;99600.25;;;10.35
12430;BMP280;6279;42.192;24.326;2023-02-28T00:47:30;99609.63;;;10.29
12430;BMP280;6279;42.192;24.326;2023-02-28T00:49:55;99608.34;;;10.32
12430;BMP280;6279;42.192;24.326;2023-02-28T00:52:21;99610.13;;;10.32
12430;BMP280;6279;42.192;24.326;2023-02-28T00:54:46;99611.41;;;10.28
12430;BMP280;6279;42.192;24.326;2023-02-28T00:57:12;99601.47;;;10.24
12430;BMP280;6279;42.192;24.326;2023-02-28T00:59:37;99592.41;;;10.28
12430;BMP280;6279;42.192;24.326;2023-02-28T01:02:02;99589.34;;;10.32
12430;BMP280;6279;42.192;24.326;2023-02-28T01:04:28;99592.09;;;10.30
12430;BMP280;6279;42.192;24.326;2023-02-28T01:06:53;99595.31;;;10.25
12430;BMP280;6279;42.192;24.326;2023-02-28T01:09:19;99600.03;;;10.29
12430;BMP280;6279;42.192;24.326;2023-02-28T01:11:44;99604.22;;;10.22
12430;BMP280;6279;42.192;24.326;2023-02-28T01:14:15;99594.34;;;10.26
12430;BMP280;6279;42.192;24.326;2023-02-28T01:16:41;99588.69;;;10.13
12430;BMP280;6279;42.192;24.326;2023-02-28T01:19:07;99579.44;;;10.10
12430;BMP280;6279;42.192;24.326;2023-02-28T01:21:33;99583.22;;;9.99
12430;BMP280;6279;42.192;24.326;2023-02-28T01:23:59;99593.75;;;9.97
12430;BMP280;6279;42.192;24.326;2023-02-28T01:26:25;99587.97;;;10.03
12430;BMP280;6279;42.192;24.326;2023-02-28T01:28:51;99592.06;;;10.06
12430;BMP280;6279;42.192;24.326;2023-02-28T01:31:18;99603.22;;;9.72
12430;BMP280;6279;42.192;24.326;2023-02-28T01:33:44;99598.53;;;9.58
12430;BMP280;6279;42.192;24.326;2023-02-28T01:36:19;99602.25;;;9.56
12430;BMP280;6279;42.192;24.326;2023-02-28T01:38:45;99611.00;;;9.55
12430;BMP280;6279;42.192;24.326;2023-02-28T01:41:21;99608.78;;;9.60
12430;BMP280;6279;42.192;24.326;2023-02-28T01:46:14;99609.84;;;9.66
12430;BMP280;6279;42.192;24.326;2023-02-28T01:49:26;99613.47;;;9.73
12430;BMP280;6279;42.192;24.326;2023-02-28T01:51:41;99627.31;;;9.91
12430;BMP280;6279;42.192;24.326;2023-02-28T01:54:13;99617.28;;;9.96
12430;BMP280;6279;42.192;24.326;2023-02-28T01:56:53;99621.22;;;10.00
12430;BMP280;6279;42.192;24.326;2023-02-28T01:59:26;99614.84;;;10.11
12430;BMP280;6279;42.192;24.326;2023-02-28T02:01:54;99617.13;;;10.14
12430;BMP280;6279;42.192;24.326;2023-02-28T02:04:22;99616.00;;;10.17
12430;BMP280;6279;42.192;24.326;2023-02-28T02:06:48;99620.94;;;10.20
12430;BMP280;6279;42.192;24.326;2023-02-28T02:09:14;99624.34;;;10.20
12430;BMP280;6279;42.192;24.326;2023-02-28T02:11:42;99618.38;;;10.28
12430;BMP280;6279;42.192;24.326;2023-02-28T02:31:06;99661.41;;;9.79
12430;BMP280;6279;42.192;24.326;2023-02-28T02:36:25;99654.72;;;9.86
12430;BMP280;6279;42.192;24.326;2023-02-28T02:39:02;99652.13;;;9.76
12430;BMP280;6279;42.192;24.326;2023-02-28T02:41:37;99659.25;;;9.74
12430;BMP280;6279;42.192;24.326;2023-02-28T02:44:23;99661.84;;;9.74
12430;BMP280;6279;42.192;24.326;2023-02-28T02:46:54;99649.47;;;9.68
12430;BMP280;6279;42.192;24.326;2023-02-28T02:49:32;99656.50;;;9.76
12430;BMP280;6279;42.192;24.326;2023-02-28T02:52:03;99670.16;;;9.78
12430;BMP280;6279;42.192;24.326;2023-02-28T02:54:36;99671.28;;;9.75
12430;BMP280;6279;42.192;24.326;2023-02-28T02:57:13;99679.38;;;9.72
12430;BMP280;6279;42.192;24.326;2023-02-28T02:59:41;99687.69;;;9.76
12430;BMP280;6279;42.192;24.326;2023-02-28T03:02:11;99689.38;;;9.67
12430;BMP280;6279;42.192;24.326;2023-02-28T03:04:52;99693.31;;;9.71
12430;BMP280;6279;42.192;24.326;2023-02-28T03:07:19;99691.31;;;9.65
12430;BMP280;6279;42.192;24.326;2023-02-28T03:09:55;99708.31;;;9.77
12430;BMP280;6279;42.192;24.326;2023-02-28T03:12:30;99701.84;;;9.81
12430;BMP280;6279;42.192;24.326;2023-02-28T03:26:04;99717.00;;;9.68
12430;BMP280;6279;42.192;24.326;2023-02-28T03:31:22;99731.56;;;9.43
12430;BMP280;6279;42.192;24.326;2023-02-28T03:33:55;99730.38;;;8.93
12430;BMP280;6279;42.192;24.326;2023-02-28T03:36:27;99740.47;;;8.86
12430;BMP280;6279;42.192;24.326;2023-02-28T03:39:03;99735.47;;;8.66
12430;BMP280;6279;42.192;24.326;2023-02-28T03:41:38;99751.44;;;8.62
12430;BMP280;6279;42.192;24.326;2023-02-28T03:44:12;99741.34;;;8.59
12430;BMP280;6279;42.192;24.326;2023-02-28T03:46:50;99747.06;;;8.62
12430;BMP280;6279;42.192;24.326;2023-02-28T03:49:27;99751.16;;;8.65
12430;BMP280;6279;42.192;24.326;2023-02-28T03:51:56;99754.00;;;8.71
12430;BMP280;6279;42.192;24.326;2023-02-28T03:54:30;99763.69;;;8.88
12430;BMP280;6279;42.192;24.326;2023-02-28T03:57:02;99774.75;;;8.99
12430;BMP280;6279;42.192;24.326;2023-02-28T03:59:34;99762.41;;;9.19
12430;BMP280;6279;42.192;24.326;2023-02-28T04:02:02;99775.63;;;9.35
12430;BMP280;6279;42.192;24.326;2023-02-28T04:04:28;99778.16;;;9.54
12430;BMP280;6279;42.192;24.326;2023-02-28T04:07:01;99776.97;;;9.75
12430;BMP280;6279;42.192;24.326;2023-02-28T04:09:27;99783.78;;;9.85
12430;BMP280;6279;42.192;24.326;2023-02-28T04:11:53;99780.22;;;9.86
12430;BMP280;6279;42.192;24.326;2023-02-28T04:14:18;99773.19;;;9.96
12430;BMP280;6279;42.192;24.326;2023-02-28T04:16:44;99776.88;;;10.03
12430;BMP280;6279;42.192;24.326;2023-02-28T04:19:11;99786.28;;;10.04
12430;BMP280;6279;42.192;24.326;2023-02-28T04:21:42;99785.88;;;9.99
12430;BMP280;6279;42.192;24.326;2023-02-28T04:24:10;99791.75;;;10.01
12430;BMP280;6279;42.192;24.326;2023-02-28T04:26:40;99793.53;;;10.00
12430;BMP280;6279;42.192;24.326;2023-02-28T04:29:06;99787.25;;;10.03
12430;BMP280;6279;42.192;24.326;2023-02-28T04:31:33;99785.19;;;10.06
12430;BMP280;6279;42.192;24.326;2023-02-28T04:33:59;99785.75;;;10.00
12430;BMP280;6279;42.192;24.326;2023-02-28T04:36:25;99788.09;;;9.94
12430;BMP280;6279;42.192;24.326;2023-02-28T04:38:50;99784.63;;;9.86
12430;BMP280;6279;42.192;24.326;2023-02-28T04:41:16;99787.44;;;9.92
12430;BMP280;6279;42.192;24.326;2023-02-28T04:43:42;99788.03;;;9.86
12430;BMP280;6279;42.192;24.326;2023-02-28T04:46:08;99799.47;;;9.93
12430;BMP280;6279;42.192;24.326;2023-02-28T04:48:36;99798.13;;;9.89
12430;BMP280;6279;42.192;24.326;2023-02-28T04:51:07;99800.88;;;9.87
12430;BMP280;6279;42.192;24.326;2023-02-28T04:53:34;99796.78;;;9.85
12430;BMP280;6279;42.192;24.326;2023-02-28T04:55:59;99801.41;;;9.82
12430;BMP280;6279;42.192;24.326;2023-02-28T04:58:26;99799.91;;;9.79
12430;BMP280;6279;42.192;24.326;2023-02-28T05:00:52;99805.41;;;9.86
12430;BMP280;6279;42.192;24.326;2023-02-28T05:03:18;99802.34;;;9.81
12430;BMP280;6279;42.192;24.326;2023-02-28T05:05:44;99801.16;;;9.85
12430;BMP280;6279;42.192;24.326;2023-02-28T05:08:10;99810.97;;;9.90
12430;BMP280;6279;42.192;24.326;2023-02-28T05:10:36;99814.75;;;9.96
12430;BMP280;6279;42.192;24.326;2023-02-28T05:13:01;99821.50;;;9.89
12430;BMP280;6279;42.192;24.326;2023-02-28T05:15:27;99812.63;;;9.82
12430;BMP280;6279;42.192;24.326;2023-02-28T05:17:55;99820.31;;;9.74
12430;BMP280;6279;42.192;24.326;2023-02-28T05:20:21;99824.16;;;9.70
12430;BMP280;6279;42.192;24.326;2023-02-28T05:22:46;99824.31;;;9.60
12430;BMP280;6279;42.192;24.326;2023-02-28T05:25:16;99841.25;;;9.63
12430;BMP280;6279;42.192;24.326;2023-02-28T05:27:42;99846.19;;;9.66
12430;BMP280;6279;42.192;24.326;2023-02-28T05:30:08;99855.88;;;9.64
12430;BMP280;6279;42.192;24.326;2023-02-28T05:32:39;99845.47;;;9.64
12430;BMP280;6279;42.192;24.326;2023-02-28T05:35:11;99853.69;;;9.60
12430;BMP280;6279;42.192;24.326;2023-02-28T05:37:37;99858.66;;;9.54
12430;BMP280;6279;42.192;24.326;2023-02-28T05:40:04;99854.28;;;9.54
12430;BMP280;6279;42.192;24.326;2023-02-28T05:42:36;99858.47;;;9.64
12430;BMP280;6279;42.192;24.326;2023-02-28T05:45:01;99864.06;;;9.69
12430;BMP280;6279;42.192;24.326;2023-02-28T05:47:27;99869.28;;;9.69
12430;BMP280;6279;42.192;24.326;2023-02-28T05:49:52;99872.94;;;9.76
12430;BMP280;6279;42.192;24.326;2023-02-28T05:52:17;99884.81;;;9.79
12430;BMP280;6279;42.192;24.326;2023-02-28T05:54:43;99886.09;;;9.65
12430;BMP280;6279;42.192;24.326;2023-02-28T05:57:08;99886.53;;;9.52
12430;BMP280;6279;42.192;24.326;2023-02-28T05:59:34;99888.72;;;9.56
12430;BMP280;6279;42.192;24.326;2023-02-28T06:01:59;99890.75;;;9.53
12430;BMP280;6279;42.192;24.326;2023-02-28T06:04:25;99898.81;;;9.59
12430;BMP280;6279;42.192;24.326;2023-02-28T06:06:50;99891.97;;;9.58
12430;BMP280;6279;42.192;24.326;2023-02-28T06:09:17;99902.09;;;9.61
12430;BMP280;6279;42.192;24.326;2023-02-28T06:11:43;99897.16;;;9.67
12430;BMP280;6279;42.192;24.326;2023-02-28T06:14:15;99896.88;;;9.70
12430;BMP280;6279;42.192;24.326;2023-02-28T06:16:41;99901.50;;;9.76
12430;BMP280;6279;42.192;24.326;2023-02-28T06:19:06;99898.94;;;9.86
12430;BMP280;6279;42.192;24.326;2023-02-28T06:21:31;99898.75;;;9.78
12430;BMP280;6279;42.192;24.326;2023-02-28T06:23:58;99893.03;;;9.74
12430;BMP280;6279;42.192;24.326;2023-02-28T06:26:25;99892.06;;;9.75
12430;BMP280;6279;42.192;24.326;2023-02-28T06:28:50;99900.41;;;9.79
12430;BMP280;6279;42.192;24.326;2023-02-28T06:31:17;99894.25;;;9.89
12430;BMP280;6279;42.192;24.326;2023-02-28T06:33:44;99900.38;;;9.97
12430;BMP280;6279;42.192;24.326;2023-02-28T06:36:11;99912.97;;;9.92
12430;BMP280;6279;42.192;24.326;2023-02-28T06:38:37;99907.41;;;9.87
12430;BMP280;6279;42.192;24.326;2023-02-28T06:41:04;99919.22;;;9.99
12430;BMP280;6279;42.192;24.326;2023-02-28T06:43:33;99906.91;;;10.10
12430;BMP280;6279;42.192;24.326;2023-02-28T06:46:00;99914.78;;;10.18
12430;BMP280;6279;42.192;24.326;2023-02-28T06:48:27;99907.41;;;10.23
12430;BMP280;6279;42.192;24.326;2023-02-28T06:51:00;99912.44;;;10.25
12430;BMP280;6279;42.192;24.326;2023-02-28T06:53:26;99909.56;;;10.28
12430;BMP280;6279;42.192;24.326;2023-02-28T06:55:51;99902.75;;;10.17
12430;BMP280;6279;42.192;24.326;2023-02-28T06:58:16;99907.34;;;10.06
12430;BMP280;6279;42.192;24.326;2023-02-28T07:00:45;99917.44;;;10.00
12430;BMP280;6279;42.192;24.326;2023-02-28T07:03:12;99913.34;;;10.07
12430;BMP280;6279;42.192;24.326;2023-02-28T07:05:38;99916.91;;;10.32
12430;BMP280;6279;42.192;24.326;2023-02-28T07:08:05;99913.84;;;10.46
12430;BMP280;6279;42.192;24.326;2023-02-28T07:10:31;99917.13;;;10.48
12430;BMP280;6279;42.192;24.326;2023-02-28T07:12:58;99923.09;;;10.57
12430;BMP280;6279;42.192;24.326;2023-02-28T07:15:23;99928.88;;;10.51
12430;BMP280;6279;42.192;24.326;2023-02-28T07:17:48;99930.28;;;10.46
12430;BMP280;6279;42.192;24.326;2023-02-28T07:20:14;99924.53;;;10.43
12430;BMP280;6279;42.192;24.326;2023-02-28T07:22:39;99930.28;;;10.46
12430;BMP280;6279;42.192;24.326;2023-02-28T07:25:05;99924.03;;;10.30
12430;BMP280;6279;42.192;24.326;2023-02-28T07:27:31;99921.16;;;10.33
12430;BMP280;6279;42.192;24.326;2023-02-28T07:29:56;99929.97;;;10.49
12430;BMP280;6279;42.192;24.326;2023-02-28T07:32:22;99931.88;;;10.56
12430;BMP280;6279;42.192;24.326;2023-02-28T07:34:47;99932.28;;;10.78
12430;BMP280;6279;42.192;24.326;2023-02-28T07:37:13;99934.28;;;10.84
12430;BMP280;6279;42.192;24.326;2023-02-28T07:39:39;99926.78;;;10.81
12430;BMP280;6279;42.192;24.326;2023-02-28T07:42:07;99936.41;;;10.72
12430;BMP280;6279;42.192;24.326;2023-02-28T07:44:35;99938.00;;;10.82
12430;BMP280;6279;42.192;24.326;2023-02-28T07:47:08;99925.59;;;10.76
12430;BMP280;6279;42.192;24.326;2023-02-28T07:49:37;99920.56;;;10.92
12430;BMP280;6279;42.192;24.326;2023-02-28T07:52:06;99924.06;;;11.17
12430;BMP280;6279;42.192;24.326;2023-02-28T07:54:33;99926.00;;;11.49
12430;BMP280;6279;42.192;24.326;2023-02-28T07:56:59;99923.25;;;11.51
12430;BMP280;6279;42.192;24.326;2023-02-28T07:59:24;99932.94;;;11.41
12430;BMP280;6279;42.192;24.326;2023-02-28T08:01:50;99939.84;;;11.33
12430;BMP280;6279;42.192;24.326;2023-02-28T08:04:17;99937.00;;;11.09
12430;BMP280;6279;42.192;24.326;2023-02-28T08:06:43;99938.56;;;11.02
12430;BMP280;6279;42.192;24.326;2023-02-28T08:09:08;99954.50;;;10.90
12430;BMP280;6279;42.192;24.326;2023-02-28T08:11:34;99954.38;;;10.74
12430;BMP280;6279;42.192;24.326;2023-02-28T08:13:59;99956.97;;;10.74
12430;BMP280;6279;42.192;24.326;2023-02-28T08:16:25;99963.06;;;10.83
12430;BMP280;6279;42.192;24.326;2023-02-28T08:18:51;99959.00;;;10.97
12430;BMP280;6279;42.192;24.326;2023-02-28T08:21:18;99953.31;;;11.11
12430;BMP280;6279;42.192;24.326;2023-02-28T08:23:43;99954.63;;;11.15
12430;BMP280;6279;42.192;24.326;2023-02-28T08:26:09;99942.28;;;11.17
12430;BMP280;6279;42.192;24.326;2023-02-28T08:28:35;99951.72;;;11.18
12430;BMP280;6279;42.192;24.326;2023-02-28T08:31:00;99948.16;;;11.19
12430;BMP280;6279;42.192;24.326;2023-02-28T08:33:27;99939.16;;;11.31
12430;BMP280;6279;42.192;24.326;2023-02-28T08:35:53;99943.13;;;11.35
12430;BMP280;6279;42.192;24.326;2023-02-28T08:38:19;99944.13;;;11.24
12430;BMP280;6279;42.192;24.326;2023-02-28T08:40:45;99941.47;;;11.17
12430;BMP280;6279;42.192;24.326;2023-02-28T08:43:10;99942.22;;;11.09
12430;BMP280;6279;42.192;24.326;2023-02-28T08:45:35;99940.34;;;11.02
12430;BMP280;6279;42.192;24.326;2023-02-28T08:48:01;99938.19;;;10.97
12430;BMP280;6279;42.192;24.326;2023-02-28T08:50:26;99936.56;;;10.96
12430;BMP280;6279;42.192;24.326;2023-02-28T08:52:52;99928.59;;;11.15
12430;BMP280;6279;42.192;24.326;2023-02-28T08:55:17;99939.16;;;11.14
12430;BMP280;6279;42.192;24.326;2023-02-28T08:57:42;99937.75;;;11.19
12430;BMP280;6279;42.192;24.326;2023-02-28T09:00:08;99931.41;;;11.04
12430;BMP280;6279;42.192;24.326;2023-02-28T09:02:35;99934.94;;;11.13
12430;BMP280;6279;42.192;24.326;2023-02-28T09:05:02;99932.84;;;11.16
12430;BMP280;6279;42.192;24.326;2023-02-28T09:07:28;99934.63;;;11.33
12430;BMP280;6279;42.192;24.326;2023-02-28T09:09:53;99942.97;;;11.36
12430;BMP280;6279;42.192;24.326;2023-02-28T09:12:23;99939.91;;;11.23
12430;BMP280;6279;42.192;24.326;2023-02-28T09:14:49;99942.06;;;11.28
12430;BMP280;6279;42.192;24.326;2023-02-28T09:17:14;99945.13;;;11.40
12430;BMP280;6279;42.192;24.326;2023-02-28T09:19:40;99943.41;;;11.32
12430;BMP280;6279;42.192;24.326;2023-02-28T09:22:05;99945.66;;;11.27
12430;BMP280;6279;42.192;24.326;2023-02-28T09:24:31;99942.84;;;11.38
12430;BMP280;6279;42.192;24.326;2023-02-28T09:26:57;99930.16;;;11.42
12430;BMP280;6279;42.192;24.326;2023-02-28T09:29:22;99932.50;;;11.45
12430;BMP280;6279;42.192;24.326;2023-02-28T09:31:48;99925.94;;;11.41
12430;BMP280;6279;42.192;24.326;2023-02-28T09:34:13;99917.22;;;11.16
12430;BMP280;6279;42.192;24.326;2023-02-28T09:36:39;99919.00;;;10.98
12430;BMP280;6279;42.192;24.326;2023-02-28T09:39:04;99907.09;;;11.13
12430;BMP280;6279;42.192;24.326;2023-02-28T09:41:37;99905.91;;;11.42
12430;BMP280;6279;42.192;24.326;2023-02-28T09:44:06;99903.34;;;11.67
12430;BMP280;6279;42.192;24.326;2023-02-28T09:46:37;99916.94;;;11.78
12430;BMP280;6279;42.192;24.326;2023-02-28T09:49:10;99923.78;;;11.79
12430;BMP280;6279;42.192;24.326;2023-02-28T09:54:39;99927.19;;;11.38
12430;BMP280;6279;42.192;24.326;2023-02-28T09:57:07;99921.75;;;11.31
12430;BMP280;6279;42.192;24.326;2023-02-28T10:05:06;99910.53;;;11.31
12430;BMP280;6279;42.192;24.326;2023-02-28T10:07:50;99918.34;;;11.48
12430;BMP280;6279;42.192;24.326;2023-02-28T10:12:52;99910.38;;;11.49
12430;BMP280;6279;42.192;24.326;2023-02-28T10:15:18;99908.44;;;11.51
12430;BMP280;6279;42.192;24.326;2023-02-28T10:17:47;99917.84;;;11.44
12430;BMP280;6279;42.192;24.326;2023-02-28T10:20:20;99913.97;;;11.48
12430;BMP280;6279;42.192;24.326;2023-02-28T10:22:59;99911.06;;;11.34
12430;BMP280;6279;42.192;24.326;2023-02-28T10:25:33;99917.38;;;11.32
12430;BMP280;6279;42.192;24.326;2023-02-28T10:28:08;99908.78;;;11.22
12430;BMP280;6279;42.192;24.326;2023-02-28T10:30:36;99910.13;;;11.26
12430;BMP280;6279;42.192;24.326;2023-02-28T10:33:02;99901.31;;;11.36
12430;BMP280;6279;42.192;24.326;2023-02-28T10:35:28;99902.78;;;11.39
12430;BMP280;6279;42.192;24.326;2023-02-28T10:37:58;99901.16;;;11.38
12430;BMP280;6279;42.192;24.326;2023-02-28T10:40:35;99908.59;;;11.33
12430;BMP280;6279;42.192;24.326;2023-02-28T10:43:02;99899.53;;;11.37
12430;BMP280;6279;42.192;24.326;2023-02-28T10:45:35;99898.91;;;11.42
12430;BMP280;6279;42.192;24.326;2023-02-28T10:48:05;99899.72;;;11.43
12430;BMP280;6279;42.192;24.326;2023-02-28T11:04:16;99870.81;;;10.95
12430;BMP280;6279;42.192;24.326;2023-02-28T11:06:43;99869.25;;;11.01
12430;BMP280;6279;42.192;24.326;2023-02-28T11:12:01;99858.69;;;10.86
12430;BMP280;6279;42.192;24.326;2023-02-28T11:14:35;99864.84;;;10.85
12430;BMP280;6279;42.192;24.326;2023-02-28T11:17:15;99862.69;;;10.97
12430;BMP280;6279;42.192;24.326;2023-02-28T11:19:46;99860.69;;;11.09
12430;BMP280;6279;42.192;24.326;2023-02-28T11:22:19;99853.09;;;11.15
12430;BMP280;6279;42.192;24.326;2023-02-28T11:24:49;99857.22;;;11.25
12430;BMP280;6279;42.192;24.326;2023-02-28T11:29:50;99866.34;;;11.04
12430;BMP280;6279;42.192;24.326;2023-02-28T11:32:21;99860.09;;;10.97
12430;BMP280;6279;42.192;24.326;2023-02-28T11:35:01;99851.78;;;11.11
12430;BMP280;6279;42.192;24.326;2023-02-28T11:37:39;99859.63;;;11.19
12430;BMP280;6279;42.192;24.326;2023-02-28T11:40:28;99859.84;;;11.08
12430;BMP280;6279;42.192;24.326;2023-02-28T11:43:04;99851.13;;;10.92
12430;BMP280;6279;42.192;24.326;2023-02-28T11:48:23;99843.22;;;11.01
12430;BMP280;6279;42.192;24.326;2023-02-28T11:51:18;99836.38;;;11.00
12430;BMP280;6279;42.192;24.326;2023-02-28T11:56:43;99830.03;;;11.03
12430;BMP280;6279;42.192;24.326;2023-02-28T12:05:05;99833.78;;;11.00
12430;BMP280;6279;42.192;24.326;2023-02-28T12:07:46;99837.50;;;10.64
12430;BMP280;6279;42.192;24.326;2023-02-28T12:10:28;99836.69;;;10.37
12430;BMP280;6279;42.192;24.326;2023-02-28T12:24:37;99825.69;;;9.99
12430;BMP280;6279;42.192;24.326;2023-02-28T12:27:09;99833.69;;;9.88
12430;BMP280;6279;42.192;24.326;2023-02-28T12:30:00;99839.16;;;9.76
12430;BMP280;6279;42.192;24.326;2023-02-28T12:32:37;99835.88;;;9.74
12430;BMP280;6279;42.192;24.326;2023-02-28T12:37:39;99841.38;;;9.71
12430;BMP280;6279;42.192;24.326;2023-02-28T12:40:19;99838.25;;;9.68
12430;BMP280;6279;42.192;24.326;2023-02-28T12:42:49;99834.78;;;9.77
12430;BMP280;6279;42.192;24.326;2023-02-28T12:45:20;99838.88;;;9.79
12430;BMP280;6279;42.192;24.326;2023-02-28T12:47:51;99835.66;;;9.68
12430;BMP280;6279;42.192;24.326;2023-02-28T12:50:18;99829.50;;;9.60
12430;BMP280;6279;42.192;24.326;2023-02-28T12:53:03;99833.25;;;9.48
12430;BMP280;6279;42.192;24.326;2023-02-28T12:55:53;99834.19;;;9.47
12430;BMP280;6279;42.192;24.326;2023-02-28T13:06:59;99835.28;;;9.44
12430;BMP280;6279;42.192;24.326;2023-02-28T13:09:30;99830.66;;;9.39
12430;BMP280;6279;42.192;24.326;2023-02-28T13:11:57;99831.59;;;9.47
12430;BMP280;6279;42.192;24.326;2023-02-28T13:14:29;99830.09;;;9.44
12430;BMP280;6279;42.192;24.326;2023-02-28T13:19:39;99831.75;;;9.36
12430;BMP280;6279;42.192;24.326;2023-02-28T13:22:19;99820.72;;;9.34
12430;BMP280;6279;42.192;24.326;2023-02-28T13:24:53;99833.16;;;9.31
12430;BMP280;6279;42.192;24.326;2023-02-28T13:27:33;99825.63;;;9.28
12430;BMP280;6279;42.192;24.326;2023-02-28T13:29:59;99835.47;;;9.24
12430;BMP280;6279;42.192;24.326;2023-02-28T13:39:47;99841.47;;;9.25
12430;BMP280;6279;42.192;24.326;2023-02-28T13:42:34;99850.09;;;9.16
12430;BMP280;6279;42.192;24.326;2023-02-28T13:50:31;99846.53;;;9.08
12430;BMP280;6279;42.192;24.326;2023-02-28T13:56:03;99861.44;;;9.06
12430;BMP280;6279;42.192;24.326;2023-02-28T13:58:43;99855.00;;;9.10
12430;BMP280;6279;42.192;24.326;2023-02-28T14:01:36;99853.22;;;9.10
12430;BMP280;6279;42.192;24.326;2023-02-28T14:06:51;99847.91;;;9.21
12430;BMP280;6279;42.192;24.326;2023-02-28T14:09:28;99849.16;;;9.17
12430;BMP280;6279;42.192;24.326;2023-02-28T14:11:54;99840.25;;;9.10
12430;BMP280;6279;42.192;24.326;2023-02-28T14:17:05;99836.88;;;9.00
12430;BMP280;6279;42.192;24.326;2023-02-28T14:19:34;99834.09;;;9.11
12430;BMP280;6279;42.192;24.326;2023-02-28T14:28:11;99842.59;;;9.04
12430;BMP280;6279;42.192;24.326;2023-02-28T14:31:01;99829.47;;;9.05
12430;BMP280;6279;42.192;24.326;2023-02-28T14:36:26;99843.41;;;9.04
12430;BMP280;6279;42.192;24.326;2023-02-28T14:38:58;99848.47;;;8.97
12430;BMP280;6279;42.192;24.326;2023-02-28T14:41:37;99850.91;;;8.89
12430;BMP280;6279;42.192;24.326;2023-02-28T14:44:24;99848.34;;;8.98
12430;BMP280;6279;42.192;24.326;2023-02-28T14:46:56;99844.22;;;9.05
12430;BMP280;6279;42.192;24.326;2023-02-28T14:49:32;99847.50;;;9.07
12430;BMP280;6279;42.192;24.326;2023-02-28T14:54:31;99844.50;;;9.02
12430;BMP280;6279;42.192;24.326;2023-02-28T14:56:56;99840.69;;;9.06
12430;BMP280;6279;42.192;24.326;2023-02-28T14:59:29;99850.38;;;9.04
12430;BMP280;6279;42.192;24.326;2023-02-28T15:02:19;99849.81;;;9.10
12430;BMP280;6279;42.192;24.326;2023-02-28T15:04:53;99847.09;;;9.02
12430;BMP280;6279;42.192;24.326;2023-02-28T15:07:19;99853.81;;;8.95
12430;BMP280;6279;42.192;24.326;2023-02-28T15:09:44;99856.41;;;8.95
12430;BMP280;6279;42.192;24.326;2023-02-28T15:12:14;99859.00;;;8.95
12430;BMP280;6279;42.192;24.326;2023-02-28T15:14:42;99859.81;;;8.96
12430;BMP280;6279;42.192;24.326;2023-02-28T15:17:20;99874.28;;;8.98
12430;BMP280;6279;42.192;24.326;2023-02-28T15:19:48;99866.63;;;9.06
12430;BMP280;6279;42.192;24.326;2023-02-28T15:22:20;99875.38;;;9.05
12430;BMP280;6279;42.192;24.326;2023-02-28T15:24:52;99879.47;;;8.98
12430;BMP280;6279;42.192;24.326;2023-02-28T15:27:24;99877.16;;;8.95
12430;BMP280;6279;42.192;24.326;2023-02-28T15:29:55;99884.66;;;8.98
12430;BMP280;6279;42.192;24.326;2023-02-28T15:32:29;99879.75;;;9.14
12430;BMP280;6279;42.192;24.326;2023-02-28T15:34:56;99876.72;;;9.09
12430;BMP280;6279;42.192;24.326;2023-02-28T15:38:12;99876.72;;;9.09
12430;BMP280;6279;42.192;24.326;2023-02-28T15:40:50;99885.63;;;8.97
12430;BMP280;6279;42.192;24.326;2023-02-28T15:43:30;99877.16;;;8.95
12430;BMP280;6279;42.192;24.326;2023-02-28T15:46:07;99881.13;;;8.99
12430;BMP280;6279;42.192;24.326;2023-02-28T15:48:53;99879.75;;;8.95
12430;BMP280;6279;42.192;24.326;2023-02-28T15:51:25;99875.50;;;8.85
12430;BMP280;6279;42.192;24.326;2023-02-28T15:54:01;99883.56;;;8.91
12430;BMP280;6279;42.192;24.326;2023-02-28T15:56:30;99881.66;;;8.84
12430;BMP280;6279;42.192;24.326;2023-02-28T15:58:57;99880.56;;;8.86
12430;BMP280;6279;42.192;24.326;2023-02-28T16:01:28;99885.91;;;8.94
12430;BMP280;6279;42.192;24.326;2023-02-28T16:04:01;99882.47;;;8.94
12430;BMP280;6279;42.192;24.326;2023-02-28T16:06:39;99886.84;;;8.84
12430;BMP280;6279;42.192;24.326;2023-02-28T16:09:10;99882.59;;;8.83
12430;BMP280;6279;42.192;24.326;2023-02-28T16:11:39;99890.53;;;8.81
12430;BMP280;6279;42.192;24.326;2023-02-28T16:14:09;99886.69;;;8.85
12430;BMP280;6279;42.192;24.326;2023-02-28T16:16:42;99884.09;;;8.85
12430;BMP280;6279;42.192;24.326;2023-02-28T16:19:08;99890.34;;;8.74
12430;BMP280;6279;42.192;24.326;2023-02-28T16:21:33;99893.09;;;8.72
12430;BMP280;6279;42.192;24.326;2023-02-28T16:23:59;99891.03;;;8.75
12430;BMP280;6279;42.192;24.326;2023-02-28T16:26:24;99885.84;;;8.75
12430;BMP280;6279;42.192;24.326;2023-02-28T16:28:52;99894.91;;;8.81
12430;BMP280;6279;42.192;24.326;2023-02-28T16:31:18;99892.72;;;8.76
12430;BMP280;6279;42.192;24.326;2023-02-28T16:33:46;99892.28;;;8.72
12430;BMP280;6279;42.192;24.326;2023-02-28T16:36:14;99900.06;;;8.62
12430;BMP280;6279;42.192;24.326;2023-02-28T16:38:43;99901.00;;;8.71
12430;BMP280;6279;42.192;24.326;2023-02-28T16:41:12;99895.81;;;8.71
12430;BMP280;6279;42.192;24.326;2023-02-28T16:43:43;99900.47;;;8.67
12430;BMP280;6279;42.192;24.326;2023-02-28T16:46:32;99904.97;;;8.65